sensor_id;sensor_type;location;lat;lon;timestamp;temperature;humidity
33271;DHT22;53180;51.344;6.152;2022-11-20T00:01:31;1.30;84.70
33271;DHT22;53180;51.344;6.152;2022-11-20T00:04:00;1.30;84.50
33271;DHT22;53180;51.344;6.152;2022-11-20T00:06:29;1.30;84.00
33271;DHT22;53180;51.344;6.152;2022-11-20T00:08:58;1.20;84.00
33271;DHT22;53180;51.344;6.152;2022-11-20T00:11:31;1.20;84.40
33271;DHT22;53180;51.344;6.152;2022-11-20T00:14:01;1.20;84.30
33271;DHT22;53180;51.344;6.152;2022-11-20T00:16:31;1.20;84.50
33271;DHT22;53180;51.344;6.152;2022-11-20T00:19:00;1.20;84.50
33271;DHT22;53180;51.344;6.152;2022-11-20T00:21:28;1.20;84.40
33271;DHT22;53180;51.344;6.152;2022-11-20T00:23:58;1.20;84.30
33271;DHT22;53180;51.344;6.152;2022-11-20T00:26:27;1.20;84.80
33271;DHT22;53180;51.344;6.152;2022-11-20T00:28:59;1.20;84.60
33271;DHT22;53180;51.344;6.152;2022-11-20T00:31:29;1.20;84.70
33271;DHT22;53180;51.344;6.152;2022-11-20T00:33:59;1.20;84.80
33271;DHT22;53180;51.344;6.152;2022-11-20T00:36:29;1.20;84.80
33271;DHT22;53180;51.344;6.152;2022-11-20T00:39:00;1.20;85.30
33271;DHT22;53180;51.344;6.152;2022-11-20T00:41:29;1.20;85.20
33271;DHT22;53180;51.344;6.152;2022-11-20T00:43:59;1.30;85.10
33271;DHT22;53180;51.344;6.152;2022-11-20T00:46:28;1.30;85.00
33271;DHT22;53180;51.344;6.152;2022-11-20T00:48:56;1.30;85.00
33271;DHT22;53180;51.344;6.152;2022-11-20T00:51:26;1.30;84.90
33271;DHT22;53180;51.344;6.152;2022-11-20T00:53:56;1.40;85.10
33271;DHT22;53180;51.344;6.152;2022-11-20T00:56:24;1.40;85.00
33271;DHT22;53180;51.344;6.152;2022-11-20T00:58:53;1.40;85.00
33271;DHT22;53180;51.344;6.152;2022-11-20T01:01:24;1.30;84.90
33271;DHT22;53180;51.344;6.152;2022-11-20T01:03:57;1.30;84.90
33271;DHT22;53180;51.344;6.152;2022-11-20T01:06:28;1.30;85.20
33271;DHT22;53180;51.344;6.152;2022-11-20T01:08:58;1.30;85.30
33271;DHT22;53180;51.344;6.152;2022-11-20T01:11:29;1.30;85.10
33271;DHT22;53180;51.344;6.152;2022-11-20T01:13:58;1.30;84.70
33271;DHT22;53180;51.344;6.152;2022-11-20T01:16:31;1.30;84.80
33271;DHT22;53180;51.344;6.152;2022-11-20T01:19:03;1.20;85.10
33271;DHT22;53180;51.344;6.152;2022-11-20T01:21:34;1.20;85.10
33271;DHT22;53180;51.344;6.152;2022-11-20T01:24:04;1.20;85.20
33271;DHT22;53180;51.344;6.152;2022-11-20T01:26:37;1.10;85.10
33271;DHT22;53180;51.344;6.152;2022-11-20T01:29:08;1.00;85.80
33271;DHT22;53180;51.344;6.152;2022-11-20T01:31:40;0.90;85.80
33271;DHT22;53180;51.344;6.152;2022-11-20T01:34:10;0.80;85.90
33271;DHT22;53180;51.344;6.152;2022-11-20T01:36:41;0.80;86.40
33271;DHT22;53180;51.344;6.152;2022-11-20T01:39:14;0.70;86.60
33271;DHT22;53180;51.344;6.152;2022-11-20T01:41:44;0.60;86.70
33271;DHT22;53180;51.344;6.152;2022-11-20T01:44:52;0.60;87.00
33271;DHT22;53180;51.344;6.152;2022-11-20T01:47:29;0.50;87.20
33271;DHT22;53180;51.344;6.152;2022-11-20T01:50:03;0.50;87.50
33271;DHT22;53180;51.344;6.152;2022-11-20T01:52:37;0.40;87.50
33271;DHT22;53180;51.344;6.152;2022-11-20T01:55:09;0.40;87.30
33271;DHT22;53180;51.344;6.152;2022-11-20T01:57:41;0.40;87.60
33271;DHT22;53180;51.344;6.152;2022-11-20T02:00:11;0.20;87.80
33271;DHT22;53180;51.344;6.152;2022-11-20T02:02:45;0.20;87.90
33271;DHT22;53180;51.344;6.152;2022-11-20T02:05:22;0.10;87.80
33271;DHT22;53180;51.344;6.152;2022-11-20T02:07:54;0.10;88.20
33271;DHT22;53180;51.344;6.152;2022-11-20T02:10:24;0.00;87.90
33271;DHT22;53180;51.344;6.152;2022-11-20T02:12:54;0.00;88.30
33271;DHT22;53180;51.344;6.152;2022-11-20T02:15:40;0.00;88.40
33271;DHT22;53180;51.344;6.152;2022-11-20T02:18:10;-0.10;88.60
33271;DHT22;53180;51.344;6.152;2022-11-20T02:20:40;-0.10;88.80
33271;DHT22;53180;51.344;6.152;2022-11-20T02:23:11;-0.20;89.00
33271;DHT22;53180;51.344;6.152;2022-11-20T02:25:43;-0.20;89.00
33271;DHT22;53180;51.344;6.152;2022-11-20T02:28:12;-0.20;89.00
33271;DHT22;53180;51.344;6.152;2022-11-20T02:30:40;-0.20;89.20
33271;DHT22;53180;51.344;6.152;2022-11-20T02:33:09;-0.30;88.80
33271;DHT22;53180;51.344;6.152;2022-11-20T02:35:43;-0.40;88.80
33271;DHT22;53180;51.344;6.152;2022-11-20T02:38:13;-0.40;89.10
33271;DHT22;53180;51.344;6.152;2022-11-20T02:40:43;-0.50;89.00
33271;DHT22;53180;51.344;6.152;2022-11-20T02:43:16;-0.50;89.30
33271;DHT22;53180;51.344;6.152;2022-11-20T02:45:44;-0.50;89.20
33271;DHT22;53180;51.344;6.152;2022-11-20T02:48:12;-0.50;89.20
33271;DHT22;53180;51.344;6.152;2022-11-20T02:50:41;-0.30;89.40
33271;DHT22;53180;51.344;6.152;2022-11-20T02:53:09;-0.40;89.10
33271;DHT22;53180;51.344;6.152;2022-11-20T02:55:37;-0.50;89.20
33271;DHT22;53180;51.344;6.152;2022-11-20T02:58:07;-0.50;89.50
33271;DHT22;53180;51.344;6.152;2022-11-20T03:00:35;-0.50;89.70
33271;DHT22;53180;51.344;6.152;2022-11-20T03:03:04;-0.50;89.80
33271;DHT22;53180;51.344;6.152;2022-11-20T03:05:32;-0.40;90.20
33271;DHT22;53180;51.344;6.152;2022-11-20T03:08:00;-0.40;90.20
33271;DHT22;53180;51.344;6.152;2022-11-20T03:10:29;-0.40;90.20
33271;DHT22;53180;51.344;6.152;2022-11-20T03:12:57;-0.30;90.40
33271;DHT22;53180;51.344;6.152;2022-11-20T03:15:27;-0.30;90.30
33271;DHT22;53180;51.344;6.152;2022-11-20T03:17:56;-0.30;90.30
33271;DHT22;53180;51.344;6.152;2022-11-20T03:20:24;-0.20;90.40
33271;DHT22;53180;51.344;6.152;2022-11-20T03:22:54;-0.10;90.40
33271;DHT22;53180;51.344;6.152;2022-11-20T03:25:22;-0.10;90.30
33271;DHT22;53180;51.344;6.152;2022-11-20T03:27:51;0.00;90.20
33271;DHT22;53180;51.344;6.152;2022-11-20T03:30:20;0.00;90.10
33271;DHT22;53180;51.344;6.152;2022-11-20T03:32:57;0.00;90.00
33271;DHT22;53180;51.344;6.152;2022-11-20T03:35:25;0.00;89.90
33271;DHT22;53180;51.344;6.152;2022-11-20T03:37:54;0.00;89.90
33271;DHT22;53180;51.344;6.152;2022-11-20T03:40:22;0.10;89.60
33271;DHT22;53180;51.344;6.152;2022-11-20T03:42:50;0.20;89.60
33271;DHT22;53180;51.344;6.152;2022-11-20T03:45:19;0.20;89.40
33271;DHT22;53180;51.344;6.152;2022-11-20T03:47:47;0.20;89.20
33271;DHT22;53180;51.344;6.152;2022-11-20T03:50:17;0.20;89.30
33271;DHT22;53180;51.344;6.152;2022-11-20T03:52:45;0.20;89.50
33271;DHT22;53180;51.344;6.152;2022-11-20T03:55:14;0.20;89.50
33271;DHT22;53180;51.344;6.152;2022-11-20T03:57:42;0.20;89.20
33271;DHT22;53180;51.344;6.152;2022-11-20T04:00:11;0.20;88.90
33271;DHT22;53180;51.344;6.152;2022-11-20T04:02:41;0.30;88.80
33271;DHT22;53180;51.344;6.152;2022-11-20T04:05:09;0.20;88.50
33271;DHT22;53180;51.344;6.152;2022-11-20T04:07:39;0.30;88.80
33271;DHT22;53180;51.344;6.152;2022-11-20T04:10:08;0.30;88.50
33271;DHT22;53180;51.344;6.152;2022-11-20T04:12:36;0.30;88.50
33271;DHT22;53180;51.344;6.152;2022-11-20T04:15:05;0.30;88.70
33271;DHT22;53180;51.344;6.152;2022-11-20T04:17:33;0.40;88.80
33271;DHT22;53180;51.344;6.152;2022-11-20T04:20:02;0.40;88.80
33271;DHT22;53180;51.344;6.152;2022-11-20T04:22:31;0.40;88.80
33271;DHT22;53180;51.344;6.152;2022-11-20T04:25:01;0.40;88.80
33271;DHT22;53180;51.344;6.152;2022-11-20T04:27:30;0.40;88.90
33271;DHT22;53180;51.344;6.152;2022-11-20T04:29:59;0.40;89.20
33271;DHT22;53180;51.344;6.152;2022-11-20T04:32:27;0.50;89.20
33271;DHT22;53180;51.344;6.152;2022-11-20T04:34:55;0.50;88.90
33271;DHT22;53180;51.344;6.152;2022-11-20T04:37:24;0.50;88.60
33271;DHT22;53180;51.344;6.152;2022-11-20T04:39:52;0.40;88.90
33271;DHT22;53180;51.344;6.152;2022-11-20T04:42:22;0.50;88.60
33271;DHT22;53180;51.344;6.152;2022-11-20T04:44:57;0.40;88.60
33271;DHT22;53180;51.344;6.152;2022-11-20T04:47:25;0.50;88.70
33271;DHT22;53180;51.344;6.152;2022-11-20T04:49:53;0.50;88.80
33271;DHT22;53180;51.344;6.152;2022-11-20T04:52:22;0.50;89.10
33271;DHT22;53180;51.344;6.152;2022-11-20T04:54:50;0.50;88.80
33271;DHT22;53180;51.344;6.152;2022-11-20T04:57:21;0.70;88.90
33271;DHT22;53180;51.344;6.152;2022-11-20T04:59:49;0.60;88.80
33271;DHT22;53180;51.344;6.152;2022-11-20T05:02:18;0.60;88.60
33271;DHT22;53180;51.344;6.152;2022-11-20T05:04:46;0.70;88.80
33271;DHT22;53180;51.344;6.152;2022-11-20T05:07:15;0.70;88.60
33271;DHT22;53180;51.344;6.152;2022-11-20T05:09:43;0.60;88.50
33271;DHT22;53180;51.344;6.152;2022-11-20T05:12:11;0.70;88.40
33271;DHT22;53180;51.344;6.152;2022-11-20T05:14:41;0.70;88.50
33271;DHT22;53180;51.344;6.152;2022-11-20T05:17:10;0.70;88.70
33271;DHT22;53180;51.344;6.152;2022-11-20T05:19:39;0.70;89.00
33271;DHT22;53180;51.344;6.152;2022-11-20T05:22:07;0.70;89.00
33271;DHT22;53180;51.344;6.152;2022-11-20T05:24:36;0.70;89.10
33271;DHT22;53180;51.344;6.152;2022-11-20T05:27:04;0.70;89.00
33271;DHT22;53180;51.344;6.152;2022-11-20T05:29:32;0.70;89.00
33271;DHT22;53180;51.344;6.152;2022-11-20T05:32:02;0.80;88.90
33271;DHT22;53180;51.344;6.152;2022-11-20T05:34:32;0.80;88.90
33271;DHT22;53180;51.344;6.152;2022-11-20T05:37:00;0.80;88.90
33271;DHT22;53180;51.344;6.152;2022-11-20T05:39:29;0.80;88.70
33271;DHT22;53180;51.344;6.152;2022-11-20T05:41:57;0.80;88.50
33271;DHT22;53180;51.344;6.152;2022-11-20T05:44:39;0.80;88.80
33271;DHT22;53180;51.344;6.152;2022-11-20T05:47:09;0.80;88.90
33271;DHT22;53180;51.344;6.152;2022-11-20T05:49:37;0.80;88.90
33271;DHT22;53180;51.344;6.152;2022-11-20T05:52:06;0.80;89.00
33271;DHT22;53180;51.344;6.152;2022-11-20T05:54:34;0.80;89.10
33271;DHT22;53180;51.344;6.152;2022-11-20T05:57:02;0.80;89.20
33271;DHT22;53180;51.344;6.152;2022-11-20T05:59:33;0.90;89.20
33271;DHT22;53180;51.344;6.152;2022-11-20T06:02:01;0.90;89.10
33271;DHT22;53180;51.344;6.152;2022-11-20T06:04:31;0.80;89.20
33271;DHT22;53180;51.344;6.152;2022-11-20T06:06:59;0.80;89.40
33271;DHT22;53180;51.344;6.152;2022-11-20T06:09:27;0.80;89.40
33271;DHT22;53180;51.344;6.152;2022-11-20T06:11:56;0.80;89.50
33271;DHT22;53180;51.344;6.152;2022-11-20T06:14:24;0.80;89.30
33271;DHT22;53180;51.344;6.152;2022-11-20T06:16:52;0.80;89.40
33271;DHT22;53180;51.344;6.152;2022-11-20T06:19:21;0.80;89.20
33271;DHT22;53180;51.344;6.152;2022-11-20T06:21:50;0.70;89.30
33271;DHT22;53180;51.344;6.152;2022-11-20T06:24:19;0.80;89.40
33271;DHT22;53180;51.344;6.152;2022-11-20T06:26:47;0.70;89.30
33271;DHT22;53180;51.344;6.152;2022-11-20T06:29:15;0.80;89.70
33271;DHT22;53180;51.344;6.152;2022-11-20T06:31:44;0.80;89.70
33271;DHT22;53180;51.344;6.152;2022-11-20T06:34:12;0.80;89.50
33271;DHT22;53180;51.344;6.152;2022-11-20T06:36:40;0.80;89.70
33271;DHT22;53180;51.344;6.152;2022-11-20T06:39:10;0.90;89.80
33271;DHT22;53180;51.344;6.152;2022-11-20T06:41:39;0.90;89.80
33271;DHT22;53180;51.344;6.152;2022-11-20T06:44:07;0.90;89.70
33271;DHT22;53180;51.344;6.152;2022-11-20T06:46:35;0.90;89.90
33271;DHT22;53180;51.344;6.152;2022-11-20T06:49:04;0.90;90.00
33271;DHT22;53180;51.344;6.152;2022-11-20T06:51:32;0.90;89.80
33271;DHT22;53180;51.344;6.152;2022-11-20T06:54:01;1.00;89.70
33271;DHT22;53180;51.344;6.152;2022-11-20T06:56:31;1.00;89.70
33271;DHT22;53180;51.344;6.152;2022-11-20T06:59:04;1.00;89.60
33271;DHT22;53180;51.344;6.152;2022-11-20T07:01:33;1.00;89.50
33271;DHT22;53180;51.344;6.152;2022-11-20T07:04:01;1.10;89.80
33271;DHT22;53180;51.344;6.152;2022-11-20T07:06:30;1.10;89.90
33271;DHT22;53180;51.344;6.152;2022-11-20T07:08:59;1.10;89.80
33271;DHT22;53180;51.344;6.152;2022-11-20T07:11:28;1.10;89.70
33271;DHT22;53180;51.344;6.152;2022-11-20T07:13:58;1.10;89.60
33271;DHT22;53180;51.344;6.152;2022-11-20T07:16:26;1.20;89.80
33271;DHT22;53180;51.344;6.152;2022-11-20T07:18:54;1.10;89.70
33271;DHT22;53180;51.344;6.152;2022-11-20T07:21:23;1.10;89.60
33271;DHT22;53180;51.344;6.152;2022-11-20T07:23:51;1.10;89.70
33271;DHT22;53180;51.344;6.152;2022-11-20T07:26:19;1.20;89.80
33271;DHT22;53180;51.344;6.152;2022-11-20T07:28:48;1.20;89.70
33271;DHT22;53180;51.344;6.152;2022-11-20T07:31:17;1.30;89.50
33271;DHT22;53180;51.344;6.152;2022-11-20T07:33:46;1.20;89.50
33271;DHT22;53180;51.344;6.152;2022-11-20T07:36:14;1.20;89.60
33271;DHT22;53180;51.344;6.152;2022-11-20T07:38:43;1.20;89.80
33271;DHT22;53180;51.344;6.152;2022-11-20T07:41:11;1.20;89.80
33271;DHT22;53180;51.344;6.152;2022-11-20T07:43:39;1.20;89.80
33271;DHT22;53180;51.344;6.152;2022-11-20T07:46:08;1.10;89.70
33271;DHT22;53180;51.344;6.152;2022-11-20T07:48:37;1.10;89.70
33271;DHT22;53180;51.344;6.152;2022-11-20T07:51:06;1.10;89.60
33271;DHT22;53180;51.344;6.152;2022-11-20T07:53:34;1.10;89.40
33271;DHT22;53180;51.344;6.152;2022-11-20T07:56:03;1.20;89.60
33271;DHT22;53180;51.344;6.152;2022-11-20T07:58:32;1.20;89.60
33271;DHT22;53180;51.344;6.152;2022-11-20T08:01:05;1.20;89.70
33271;DHT22;53180;51.344;6.152;2022-11-20T08:03:34;1.20;89.70
33271;DHT22;53180;51.344;6.152;2022-11-20T08:06:06;1.20;89.60
33271;DHT22;53180;51.344;6.152;2022-11-20T08:08:35;1.30;89.50
33271;DHT22;53180;51.344;6.152;2022-11-20T08:11:08;1.30;89.40
33271;DHT22;53180;51.344;6.152;2022-11-20T08:13:54;1.30;89.50
33271;DHT22;53180;51.344;6.152;2022-11-20T08:16:42;1.40;89.70
33271;DHT22;53180;51.344;6.152;2022-11-20T08:19:12;1.40;89.70
33271;DHT22;53180;51.344;6.152;2022-11-20T08:21:42;1.50;89.70
33271;DHT22;53180;51.344;6.152;2022-11-20T08:24:11;1.50;89.60
33271;DHT22;53180;51.344;6.152;2022-11-20T08:26:40;1.60;89.50
33271;DHT22;53180;51.344;6.152;2022-11-20T08:29:08;1.70;89.50
33271;DHT22;53180;51.344;6.152;2022-11-20T08:31:37;1.70;89.30
33271;DHT22;53180;51.344;6.152;2022-11-20T08:34:05;1.70;88.70
33271;DHT22;53180;51.344;6.152;2022-11-20T08:36:36;1.70;88.60
33271;DHT22;53180;51.344;6.152;2022-11-20T08:39:06;1.80;88.50
33271;DHT22;53180;51.344;6.152;2022-11-20T08:41:34;1.90;88.40
33271;DHT22;53180;51.344;6.152;2022-11-20T08:44:05;1.90;87.80
33271;DHT22;53180;51.344;6.152;2022-11-20T08:46:35;1.90;88.10
33271;DHT22;53180;51.344;6.152;2022-11-20T08:49:05;1.90;88.30
33271;DHT22;53180;51.344;6.152;2022-11-20T08:51:34;2.00;88.60
33271;DHT22;53180;51.344;6.152;2022-11-20T08:54:03;2.10;88.40
33271;DHT22;53180;51.344;6.152;2022-11-20T08:56:34;2.20;88.50
33271;DHT22;53180;51.344;6.152;2022-11-20T08:59:02;2.20;88.50
33271;DHT22;53180;51.344;6.152;2022-11-20T09:01:51;2.30;88.70
33271;DHT22;53180;51.344;6.152;2022-11-20T09:04:19;2.30;88.40
33271;DHT22;53180;51.344;6.152;2022-11-20T09:06:47;2.30;88.40
33271;DHT22;53180;51.344;6.152;2022-11-20T09:09:19;2.40;88.50
33271;DHT22;53180;51.344;6.152;2022-11-20T09:11:48;2.50;88.70
33271;DHT22;53180;51.344;6.152;2022-11-20T09:14:17;2.50;88.60
33271;DHT22;53180;51.344;6.152;2022-11-20T09:16:46;2.50;88.60
33271;DHT22;53180;51.344;6.152;2022-11-20T09:19:14;2.60;88.70
33271;DHT22;53180;51.344;6.152;2022-11-20T09:22:02;2.60;88.50
33271;DHT22;53180;51.344;6.152;2022-11-20T09:24:32;2.70;88.70
33271;DHT22;53180;51.344;6.152;2022-11-20T09:27:04;2.70;88.70
33271;DHT22;53180;51.344;6.152;2022-11-20T09:29:33;2.80;88.50
33271;DHT22;53180;51.344;6.152;2022-11-20T09:32:01;2.70;88.60
33271;DHT22;53180;51.344;6.152;2022-11-20T09:34:29;2.80;88.70
33271;DHT22;53180;51.344;6.152;2022-11-20T09:36:57;2.80;88.70
33271;DHT22;53180;51.344;6.152;2022-11-20T09:39:33;2.80;88.90
33271;DHT22;53180;51.344;6.152;2022-11-20T09:42:17;2.80;88.80
33271;DHT22;53180;51.344;6.152;2022-11-20T09:45:05;2.90;89.10
33271;DHT22;53180;51.344;6.152;2022-11-20T09:47:57;2.90;89.10
33271;DHT22;53180;51.344;6.152;2022-11-20T09:50:46;2.90;89.30
33271;DHT22;53180;51.344;6.152;2022-11-20T09:53:24;2.90;89.40
33271;DHT22;53180;51.344;6.152;2022-11-20T09:56:01;2.80;89.60
33271;DHT22;53180;51.344;6.152;2022-11-20T09:58:33;2.90;89.70
33271;DHT22;53180;51.344;6.152;2022-11-20T10:01:11;2.90;89.80
33271;DHT22;53180;51.344;6.152;2022-11-20T10:03:52;2.90;89.80
33271;DHT22;53180;51.344;6.152;2022-11-20T10:06:29;3.00;90.00
33271;DHT22;53180;51.344;6.152;2022-11-20T10:09:05;3.00;89.80
33271;DHT22;53180;51.344;6.152;2022-11-20T10:11:48;3.00;89.80
33271;DHT22;53180;51.344;6.152;2022-11-20T10:14:26;3.00;89.80
33271;DHT22;53180;51.344;6.152;2022-11-20T10:17:04;3.00;89.80
33271;DHT22;53180;51.344;6.152;2022-11-20T10:19:53;3.00;90.00
33271;DHT22;53180;51.344;6.152;2022-11-20T10:22:42;3.10;90.00
33271;DHT22;53180;51.344;6.152;2022-11-20T10:25:18;3.20;89.80
33271;DHT22;53180;51.344;6.152;2022-11-20T10:28:09;3.20;90.00
33271;DHT22;53180;51.344;6.152;2022-11-20T10:30:54;3.20;89.80
33271;DHT22;53180;51.344;6.152;2022-11-20T10:33:26;3.10;89.60
33271;DHT22;53180;51.344;6.152;2022-11-20T10:36:22;3.20;89.40
33271;DHT22;53180;51.344;6.152;2022-11-20T10:38:56;3.20;89.70
33271;DHT22;53180;51.344;6.152;2022-11-20T10:41:29;3.30;89.80
33271;DHT22;53180;51.344;6.152;2022-11-20T10:44:09;3.30;89.70
33271;DHT22;53180;51.344;6.152;2022-11-20T10:46:43;3.30;89.70
33271;DHT22;53180;51.344;6.152;2022-11-20T10:49:14;3.40;89.60
33271;DHT22;53180;51.344;6.152;2022-11-20T10:51:52;3.50;89.60
33271;DHT22;53180;51.344;6.152;2022-11-20T10:54:34;3.50;89.60
33271;DHT22;53180;51.344;6.152;2022-11-20T10:57:13;3.50;89.10
33271;DHT22;53180;51.344;6.152;2022-11-20T11:00:02;3.50;89.40
33271;DHT22;53180;51.344;6.152;2022-11-20T11:02:35;3.60;89.30
33271;DHT22;53180;51.344;6.152;2022-11-20T11:05:20;3.60;89.40
33271;DHT22;53180;51.344;6.152;2022-11-20T11:07:55;3.60;89.40
33271;DHT22;53180;51.344;6.152;2022-11-20T11:10:28;3.70;89.50
33271;DHT22;53180;51.344;6.152;2022-11-20T11:13:01;3.80;89.20
33271;DHT22;53180;51.344;6.152;2022-11-20T11:15:37;3.80;89.10
33271;DHT22;53180;51.344;6.152;2022-11-20T11:18:09;3.90;89.10
33271;DHT22;53180;51.344;6.152;2022-11-20T11:20:38;3.90;89.10
33271;DHT22;53180;51.344;6.152;2022-11-20T11:23:26;3.90;89.00
33271;DHT22;53180;51.344;6.152;2022-11-20T11:26:01;4.00;89.00
33271;DHT22;53180;51.344;6.152;2022-11-20T11:28:32;4.00;89.00
33271;DHT22;53180;51.344;6.152;2022-11-20T11:31:02;4.10;88.80
33271;DHT22;53180;51.344;6.152;2022-11-20T11:33:32;4.00;88.90
33271;DHT22;53180;51.344;6.152;2022-11-20T11:36:03;4.10;88.70
33271;DHT22;53180;51.344;6.152;2022-11-20T11:38:44;4.10;88.80
33271;DHT22;53180;51.344;6.152;2022-11-20T11:41:16;4.10;89.10
33271;DHT22;53180;51.344;6.152;2022-11-20T11:43:51;4.20;88.90
33271;DHT22;53180;51.344;6.152;2022-11-20T11:46:36;4.20;88.40
33271;DHT22;53180;51.344;6.152;2022-11-20T11:49:16;4.10;88.50
33271;DHT22;53180;51.344;6.152;2022-11-20T11:52:03;4.20;88.70
33271;DHT22;53180;51.344;6.152;2022-11-20T11:54:39;4.20;88.50
33271;DHT22;53180;51.344;6.152;2022-11-20T11:57:15;4.20;88.60
33271;DHT22;53180;51.344;6.152;2022-11-20T11:59:58;4.20;88.50
33271;DHT22;53180;51.344;6.152;2022-11-20T12:02:53;4.20;88.30
33271;DHT22;53180;51.344;6.152;2022-11-20T12:05:28;4.30;88.50
33271;DHT22;53180;51.344;6.152;2022-11-20T12:08:02;4.30;88.20
33271;DHT22;53180;51.344;6.152;2022-11-20T12:10:42;4.30;88.50
33271;DHT22;53180;51.344;6.152;2022-11-20T12:13:20;4.40;88.80
33271;DHT22;53180;51.344;6.152;2022-11-20T12:15:53;4.40;88.40
33271;DHT22;53180;51.344;6.152;2022-11-20T12:18:23;4.40;88.50
33271;DHT22;53180;51.344;6.152;2022-11-20T12:21:02;4.40;88.40
33271;DHT22;53180;51.344;6.152;2022-11-20T12:23:40;4.40;88.30
33271;DHT22;53180;51.344;6.152;2022-11-20T12:26:18;4.40;88.50
33271;DHT22;53180;51.344;6.152;2022-11-20T12:29:02;4.40;88.50
33271;DHT22;53180;51.344;6.152;2022-11-20T12:31:45;4.50;88.80
33271;DHT22;53180;51.344;6.152;2022-11-20T12:34:50;4.50;89.20
33271;DHT22;53180;51.344;6.152;2022-11-20T12:37:33;4.60;89.50
33271;DHT22;53180;51.344;6.152;2022-11-20T12:40:22;4.60;89.90
33271;DHT22;53180;51.344;6.152;2022-11-20T12:43:04;4.60;89.90
33271;DHT22;53180;51.344;6.152;2022-11-20T12:46:17;4.60;89.60
33271;DHT22;53180;51.344;6.152;2022-11-20T12:49:09;4.70;90.10
33271;DHT22;53180;51.344;6.152;2022-11-20T12:51:57;4.70;90.10
33271;DHT22;53180;51.344;6.152;2022-11-20T12:54:40;4.70;90.10
33271;DHT22;53180;51.344;6.152;2022-11-20T12:57:19;4.80;90.40
33271;DHT22;53180;51.344;6.152;2022-11-20T13:00:10;4.80;90.50
33271;DHT22;53180;51.344;6.152;2022-11-20T13:03:17;4.90;90.30
33271;DHT22;53180;51.344;6.152;2022-11-20T13:06:09;4.90;90.50
33271;DHT22;53180;51.344;6.152;2022-11-20T13:08:43;4.90;90.40
33271;DHT22;53180;51.344;6.152;2022-11-20T13:11:18;4.90;90.60
33271;DHT22;53180;51.344;6.152;2022-11-20T13:14:07;4.90;90.70
33271;DHT22;53180;51.344;6.152;2022-11-20T13:16:45;4.90;90.40
33271;DHT22;53180;51.344;6.152;2022-11-20T13:19:18;4.90;90.30
33271;DHT22;53180;51.344;6.152;2022-11-20T13:21:48;4.90;90.30
33271;DHT22;53180;51.344;6.152;2022-11-20T13:24:24;5.00;90.40
33271;DHT22;53180;51.344;6.152;2022-11-20T13:27:02;5.00;90.40
33271;DHT22;53180;51.344;6.152;2022-11-20T13:29:32;5.00;90.50
33271;DHT22;53180;51.344;6.152;2022-11-20T13:32:04;5.00;90.40
33271;DHT22;53180;51.344;6.152;2022-11-20T13:34:34;5.10;90.60
33271;DHT22;53180;51.344;6.152;2022-11-20T13:37:03;5.10;90.40
33271;DHT22;53180;51.344;6.152;2022-11-20T13:39:34;5.10;90.60
33271;DHT22;53180;51.344;6.152;2022-11-20T13:42:21;5.10;90.70
33271;DHT22;53180;51.344;6.152;2022-11-20T13:44:54;5.10;90.40
33271;DHT22;53180;51.344;6.152;2022-11-20T13:47:25;5.10;90.40
33271;DHT22;53180;51.344;6.152;2022-11-20T13:49:55;5.10;90.60
33271;DHT22;53180;51.344;6.152;2022-11-20T13:52:39;5.10;90.80
33271;DHT22;53180;51.344;6.152;2022-11-20T13:55:18;5.20;90.90
33271;DHT22;53180;51.344;6.152;2022-11-20T13:58:20;5.20;90.80
33271;DHT22;53180;51.344;6.152;2022-11-20T14:00:58;5.20;90.80
33271;DHT22;53180;51.344;6.152;2022-11-20T14:03:30;5.20;90.60
33271;DHT22;53180;51.344;6.152;2022-11-20T14:06:26;5.20;90.60
33271;DHT22;53180;51.344;6.152;2022-11-20T14:08:55;5.20;90.60
33271;DHT22;53180;51.344;6.152;2022-11-20T14:11:28;5.20;90.70
33271;DHT22;53180;51.344;6.152;2022-11-20T14:13:59;5.20;90.70
33271;DHT22;53180;51.344;6.152;2022-11-20T14:16:32;5.20;90.70
33271;DHT22;53180;51.344;6.152;2022-11-20T14:19:25;5.20;90.60
33271;DHT22;53180;51.344;6.152;2022-11-20T14:22:18;5.30;90.80
33271;DHT22;53180;51.344;6.152;2022-11-20T14:25:00;5.30;90.80
33271;DHT22;53180;51.344;6.152;2022-11-20T14:27:34;5.30;90.80
33271;DHT22;53180;51.344;6.152;2022-11-20T14:30:05;5.30;90.80
33271;DHT22;53180;51.344;6.152;2022-11-20T14:32:39;5.40;90.80
33271;DHT22;53180;51.344;6.152;2022-11-20T14:35:10;5.40;90.60
33271;DHT22;53180;51.344;6.152;2022-11-20T14:37:45;5.40;90.60
33271;DHT22;53180;51.344;6.152;2022-11-20T14:40:28;5.40;90.60
33271;DHT22;53180;51.344;6.152;2022-11-20T14:42:59;5.30;90.60
33271;DHT22;53180;51.344;6.152;2022-11-20T14:45:27;5.30;90.70
33271;DHT22;53180;51.344;6.152;2022-11-20T14:47:57;5.40;90.60
33271;DHT22;53180;51.344;6.152;2022-11-20T14:50:29;5.40;90.80
33271;DHT22;53180;51.344;6.152;2022-11-20T14:52:59;5.40;90.70
33271;DHT22;53180;51.344;6.152;2022-11-20T14:55:30;5.40;90.80
33271;DHT22;53180;51.344;6.152;2022-11-20T14:58:03;5.40;90.90
33271;DHT22;53180;51.344;6.152;2022-11-20T15:00:33;5.40;91.10
33271;DHT22;53180;51.344;6.152;2022-11-20T15:03:15;5.40;91.40
33271;DHT22;53180;51.344;6.152;2022-11-20T15:05:46;5.30;91.50
33271;DHT22;53180;51.344;6.152;2022-11-20T15:08:16;5.30;91.80
33271;DHT22;53180;51.344;6.152;2022-11-20T15:10:49;5.30;92.10
33271;DHT22;53180;51.344;6.152;2022-11-20T15:13:25;5.30;92.30
33271;DHT22;53180;51.344;6.152;2022-11-20T15:15:56;5.30;92.50
33271;DHT22;53180;51.344;6.152;2022-11-20T15:18:28;5.30;92.60
33271;DHT22;53180;51.344;6.152;2022-11-20T15:21:01;5.20;92.80
33271;DHT22;53180;51.344;6.152;2022-11-20T15:23:30;5.20;92.90
33271;DHT22;53180;51.344;6.152;2022-11-20T15:25:58;5.20;93.10
33271;DHT22;53180;51.344;6.152;2022-11-20T15:28:31;5.20;93.20
33271;DHT22;53180;51.344;6.152;2022-11-20T15:31:01;5.30;93.40
33271;DHT22;53180;51.344;6.152;2022-11-20T15:33:30;5.20;93.50
33271;DHT22;53180;51.344;6.152;2022-11-20T15:35:58;5.20;93.60
33271;DHT22;53180;51.344;6.152;2022-11-20T15:38:27;5.20;93.70
33271;DHT22;53180;51.344;6.152;2022-11-20T15:40:55;5.20;93.80
33271;DHT22;53180;51.344;6.152;2022-11-20T15:43:24;5.20;93.90
33271;DHT22;53180;51.344;6.152;2022-11-20T15:45:58;5.20;94.00
33271;DHT22;53180;51.344;6.152;2022-11-20T15:48:29;5.20;94.00
33271;DHT22;53180;51.344;6.152;2022-11-20T15:51:02;5.20;94.10
33271;DHT22;53180;51.344;6.152;2022-11-20T15:53:33;5.20;94.20
33271;DHT22;53180;51.344;6.152;2022-11-20T15:56:01;5.20;94.20
33271;DHT22;53180;51.344;6.152;2022-11-20T15:58:30;5.20;94.30
33271;DHT22;53180;51.344;6.152;2022-11-20T16:00:59;5.20;94.40
33271;DHT22;53180;51.344;6.152;2022-11-20T16:03:28;5.20;94.40
33271;DHT22;53180;51.344;6.152;2022-11-20T16:05:57;5.20;94.50
33271;DHT22;53180;51.344;6.152;2022-11-20T16:08:25;5.20;94.50
33271;DHT22;53180;51.344;6.152;2022-11-20T16:10:53;5.20;94.60
33271;DHT22;53180;51.344;6.152;2022-11-20T16:13:22;5.20;94.60
33271;DHT22;53180;51.344;6.152;2022-11-20T16:16:18;5.20;94.70
33271;DHT22;53180;51.344;6.152;2022-11-20T16:18:48;5.20;94.70
33271;DHT22;53180;51.344;6.152;2022-11-20T16:21:16;5.20;94.80